Time;durP1;ratioP1;P1;durP2;ratioP2;P2;SDS_P1;SDS_P2;PMS_P1;PMS_P2;Temp;Humidity;BMP_temperature;BMP_pressure;BME280_temperature;BME280_humidity;BME280_pressure;Samples;Min_cycle;Max_cycle;Signal;HPM_P1;HPM_P2
2022/05/27 00:00:11;;;;;;;2.47;1.35;;;;;;;12.89;100.00;99343.38;5013812;28;20163;-71
2022/05/27 00:02:36;;;;;;;5.35;1.20;;;;;;;12.78;100.00;99324.97;5005525;28;20536;-72
2022/05/27 00:05:02;;;;;;;2.65;1.33;;;;;;;12.86;100.00;99340.22;5008624;28;20124;-72
2022/05/27 00:07:28;;;;;;;2.20;1.38;;;;;;;12.86;100.00;99322.09;5013020;28;20032;-72
2022/05/27 00:09:53;;;;;;;1.67;1.08;;;;;;;12.92;100.00;99329.41;5011959;28;20021;-72
2022/05/27 00:12:20;;;;;;;2.95;1.50;;;;;;;12.89;100.00;99318.09;5013947;28;20068;-72
2022/05/27 00:14:46;;;;;;;2.03;1.10;;;;;;;12.84;100.00;99307.88;5010807;28;20041;-72
2022/05/27 00:17:11;;;;;;;3.40;1.45;;;;;;;12.80;100.00;99306.59;5013368;28;20018;-72
2022/05/27 00:19:36;;;;;;;3.58;1.17;;;;;;;12.77;100.00;99317.03;5013887;28;20037;-72
2022/05/27 00:22:02;;;;;;;2.63;1.33;;;;;;;12.62;100.00;99303.63;5011079;28;20032;-72
2022/05/27 00:24:27;;;;;;;3.42;1.38;;;;;;;12.68;100.00;99319.94;5007225;28;20602;-71
2022/05/27 00:26:52;;;;;;;2.75;1.10;;;;;;;12.54;100.00;99295.66;5011171;28;20536;-72
2022/05/27 00:29:17;;;;;;;3.22;1.20;;;;;;;12.60;100.00;99305.69;5012204;28;20030;-72
2022/05/27 00:31:43;;;;;;;3.28;1.40;;;;;;;12.68;100.00;99319.94;5009796;28;20118;-71
2022/05/27 00:34:09;;;;;;;2.85;1.30;;;;;;;12.70;100.00;99311.56;5012740;28;20018;-71
2022/05/27 00:36:35;;;;;;;2.75;1.33;;;;;;;12.55;100.00;99300.03;5013309;28;20491;-71
2022/05/27 00:39:03;;;;;;;3.05;1.48;;;;;;;12.64;100.00;99304.25;5011879;28;20037;-71
2022/05/27 00:41:29;;;;;;;2.80;1.38;;;;;;;12.73;100.00;99311.16;5009647;28;20491;-71
2022/05/27 00:43:54;;;;;;;3.30;1.48;;;;;;;12.58;100.00;99300.50;5012393;28;20041;-73
2022/05/27 00:46:28;;;;;;;3.58;1.33;;;;;;;12.62;100.00;99298.19;5010941;28;20136;-71
2022/05/27 00:49:08;;;;;;;4.53;1.50;;;;;;;12.49;100.00;99288.97;5013732;28;20099;-72
2022/05/27 00:51:42;;;;;;;2.40;1.30;;;;;;;12.55;100.00;99279.19;5011647;28;20476;-71
2022/05/27 00:54:13;;;;;;;3.72;1.60;;;;;;;12.61;100.00;99294.66;5002078;28;20515;-70
2022/05/27 00:56:41;;;;;;;5.93;1.95;;;;;;;12.41;100.00;99272.84;5006807;28;20025;-71
2022/05/27 00:59:14;;;;;;;2.92;1.60;;;;;;;12.25;100.00;99267.78;5009133;28;20111;-71
2022/05/27 01:01:40;;;;;;;7.10;1.40;;;;;;;12.13;100.00;99272.97;5010527;28;22355;-72
2022/05/27 01:04:07;;;;;;;5.40;1.55;;;;;;;12.15;100.00;99270.03;5009879;28;20038;-72
2022/05/27 01:06:32;;;;;;;3.58;1.50;;;;;;;12.25;100.00;99281.38;5011194;28;20033;-71
2022/05/27 01:08:58;;;;;;;4.18;1.45;;;;;;;12.15;100.00;99273.59;5008544;28;20038;-72
2022/05/27 01:11:47;;;;;;;8.73;1.40;;;;;;;12.34;100.00;99280.16;5010843;28;20616;-72
2022/05/27 01:14:26;;;;;;;2.17;1.33;;;;;;;12.22;100.00;99273.63;5001158;28;20036;-71
2022/05/27 01:17:01;;;;;;;6.95;1.45;;;;;;;12.32;100.00;99281.41;5012027;28;20153;-72
2022/05/27 01:22:40;;;;;;;3.28;1.92;;;;;;;12.24;100.00;99290.56;5006870;28;20152;-72
2022/05/27 01:25:38;;;;;;;3.53;1.45;;;;;;;12.19;100.00;99285.72;5007607;28;20030;-71
2022/05/27 01:28:34;;;;;;;3.38;1.35;;;;;;;12.22;100.00;99284.47;5007205;28;20041;-71
2022/05/27 01:31:23;;;;;;;4.22;1.75;;;;;;;12.22;100.00;99282.59;5012410;28;20029;-72
2022/05/27 01:34:18;;;;;;;6.53;1.30;;;;;;;12.29;100.00;99290.78;5008901;28;20032;-71
2022/05/27 01:36:46;;;;;;;2.63;1.17;;;;;;;12.22;100.00;99279.88;5011584;28;20034;-72
2022/05/27 01:39:37;;;;;;;2.38;1.38;;;;;;;12.18;100.00;99280.50;5010268;28;20068;-72
2022/05/27 01:42:21;;;;;;;4.65;1.38;;;;;;;12.20;100.00;99275.69;5011072;28;20072;-71
2022/05/27 01:44:55;;;;;;;4.10;1.40;;;;;;;12.02;100.00;99252.66;5005161;28;20083;-71
2022/05/27 01:47:59;;;;;;;3.63;1.48;;;;;;;12.17;100.00;99284.25;5009907;28;20534;-72
2022/05/27 01:50:40;;;;;;;2.35;1.20;;;;;;;12.14;100.00;99273.81;5005321;28;20384;-72
2022/05/27 01:53:25;;;;;;;4.30;1.58;;;;;;;12.23;100.00;99273.41;5011669;28;20530;-71
2022/05/27 01:55:58;;;;;;;2.90;1.20;;;;;;;12.21;100.00;99275.50;5007381;28;20111;-72
2022/05/27 01:58:32;;;;;;;2.72;1.52;;;;;;;12.13;100.00;99272.97;5009770;28;20411;-71
2022/05/27 02:00:58;;;;;;;5.25;1.88;;;;;;;12.04;100.00;99269.59;5006554;28;20036;-72
2022/05/27 02:03:30;;;;;;;5.40;1.48;;;;;;;12.04;100.00;99277.72;5011108;28;20022;-72
2022/05/27 02:06:06;;;;;;;6.97;1.60;;;;;;;11.87;100.00;99256.56;5009701;28;20430;-71
2022/05/27 02:08:39;;;;;;;3.13;1.63;;;;;;;11.93;100.00;99282.88;5007559;28;20034;-72
2022/05/27 02:11:10;;;;;;;2.78;1.40;;;;;;;11.81;100.00;99274.44;5008642;28;20080;-72
2022/05/27 02:13:38;;;;;;;3.80;1.52;;;;;;;11.75;100.00;99270.66;5003898;28;20029;-72
2022/05/27 02:16:06;;;;;;;2.37;1.47;;;;;;;11.62;100.00;99244.31;5006798;28;20052;-71
2022/05/27 02:18:39;;;;;;;5.43;1.63;;;;;;;11.72;100.00;99267.50;5008814;28;20646;-71
2022/05/27 02:21:12;;;;;;;5.28;1.90;;;;;;;11.81;100.00;99261.72;5009844;28;20121;-72
2022/05/27 02:23:42;;;;;;;5.97;1.90;;;;;;;11.96;100.00;99258.91;5016073;28;20100;-72
2022/05/27 02:26:14;;;;;;;3.22;1.50;;;;;;;11.81;100.00;99229.19;5009398;28;20058;-72
2022/05/27 02:28:49;;;;;;;3.33;1.50;;;;;;;11.77;100.00;99243.34;5008404;28;20492;-72
2022/05/27 02:31:18;;;;;;;4.22;1.60;;;;;;;11.57;100.00;99241.34;5006899;28;20076;-71
2022/05/27 02:36:36;;;;;;;3.53;1.43;;;;;;;11.46;100.00;99239.19;5012180;28;20410;-71
2022/05/27 02:39:03;;;;;;;3.28;1.77;;;;;;;11.47;100.00;99224.59;5006473;28;20029;-72
2022/05/27 02:41:35;;;;;;;3.28;1.77;;;;;;;11.67;100.00;99240.16;5008198;28;20091;-71
2022/05/27 02:44:19;;;;;;;2.83;1.55;;;;;;;11.66;100.00;99247.47;5007651;28;20030;-72
2022/05/27 02:46:59;;;;;;;2.38;1.58;;;;;;;11.64;100.00;99257.66;5011645;28;20030;-72
2022/05/27 02:50:18;;;;;;;2.47;1.55;;;;;;;11.50;100.00;99245.91;5008943;28;20637;-72
2022/05/27 02:53:03;;;;;;;4.30;1.45;;;;;;;11.44;100.00;99254.81;4985662;28;20104;-71
2022/05/27 02:55:50;;;;;;;3.13;1.52;;;;;;;11.49;100.00;99241.50;5007636;28;20116;-71
2022/05/27 02:58:16;;;;;;;2.00;1.42;;;;;;;11.56;100.00;99236.97;5007707;28;20057;-71
2022/05/27 03:00:44;;;;;;;2.67;1.75;;;;;;;11.64;100.00;99227.84;5005321;28;20034;-72
2022/05/27 03:03:10;;;;;;;3.03;1.60;;;;;;;11.71;100.00;99231.44;5002313;28;20049;-71
2022/05/27 03:06:13;;;;;;;3.75;1.70;;;;;;;11.61;100.00;99236.38;5009347;28;20021;-72
2022/05/27 03:09:01;;;;;;;4.05;1.63;;;;;;;11.38;100.00;99220.41;5011307;28;20092;-71
2022/05/27 03:11:42;;;;;;;4.68;1.70;;;;;;;11.55;100.00;99239.88;5008536;28;20025;-72
2022/05/27 03:14:18;;;;;;;4.13;1.70;;;;;;;11.66;100.00;99238.47;5010365;28;20131;-70
2022/05/27 03:17:18;;;;;;;2.75;1.48;;;;;;;11.92;100.00;99230.53;5003310;28;20070;-70
2022/05/27 03:19:53;;;;;;;8.30;1.83;;;;;;;11.89;100.00;99201.09;5010374;28;20053;-72
2022/05/27 03:22:56;;;;;;;4.22;1.60;;;;;;;12.18;100.00;99246.09;5012130;28;20034;-71
2022/05/27 03:25:34;;;;;;;6.93;1.50;;;;;;;12.22;100.00;99232.94;5006600;28;20037;-72
2022/05/27 03:28:27;;;;;;;2.70;1.60;;;;;;;12.23;100.00;99250.88;5014841;28;20038;-71
2022/05/27 03:31:19;;;;;;;2.58;1.42;;;;;;;12.04;100.00;99239.75;5010254;28;20041;-72
2022/05/27 03:33:55;;;;;;;5.03;1.63;;;;;;;12.12;100.00;99229.78;5003022;28;20046;-70
2022/05/27 03:36:36;;;;;;;1.70;1.48;;;;;;;12.21;100.00;99239.41;5010221;28;20029;-71
2022/05/27 03:39:10;;;;;;;4.15;1.70;;;;;;;12.12;100.00;99233.31;5014925;28;20022;-71
2022/05/27 03:41:42;;;;;;;4.30;1.35;;;;;;;12.09;100.00;99249.16;5007093;28;20028;-72
2022/05/27 03:44:13;;;;;;;3.58;1.52;;;;;;;11.96;100.00;99229.06;5013672;28;20225;-70
2022/05/27 03:46:39;;;;;;;4.05;1.67;;;;;;;12.23;100.00;99245.47;5009021;28;20044;-72
2022/05/27 03:49:05;;;;;;;5.78;1.90;;;;;;;12.34;100.00;99246.75;5013858;28;20022;-71
2022/05/27 03:51:37;;;;;;;3.92;1.90;;;;;;;12.41;100.00;99239.47;5012380;28;20428;-71
2022/05/27 03:54:06;;;;;;;3.92;1.60;;;;;;;12.34;100.00;99249.47;5013880;28;20054;-71
2022/05/27 03:56:39;;;;;;;;;;;;;;;12.30;100.00;99254.47;5007622;28;20033;-71
2022/05/27 03:59:06;;;;;;;2.47;1.50;;;;;;;12.15;100.00;99251.06;5013504;28;19925;-72
2022/05/27 04:01:34;;;;;;;3.67;1.65;;;;;;;12.01;100.00;99248.28;5009883;28;20428;-72
2022/05/27 04:04:03;;;;;;;3.50;1.73;;;;;;;12.04;100.00;99252.47;5014066;28;20026;-72
2022/05/27 04:06:28;;;;;;;3.33;1.73;;;;;;;12.12;100.00;99246.03;5011077;28;20056;-71
2022/05/27 04:08:57;;;;;;;3.25;1.70;;;;;;;12.22;100.00;99246.50;5013333;28;20066;-72
2022/05/27 04:11:23;;;;;;;3.72;2.03;;;;;;;12.16;100.00;99239.19;5008793;28;20057;-72
2022/05/27 04:13:48;;;;;;;2.95;1.58;;;;;;;12.36;100.00;99256.34;5012145;28;20022;-71
2022/05/27 04:16:14;;;;;;;3.67;1.58;;;;;;;12.31;100.00;99226.28;5009776;28;20045;-71
2022/05/27 04:18:39;;;;;;;4.03;1.90;;;;;;;12.48;100.00;99243.88;5012726;28;20065;-70
2022/05/27 04:21:04;;;;;;;3.15;1.80;;;;;;;12.49;100.00;99242.00;5010068;28;20022;-72
2022/05/27 04:23:30;;;;;;;6.40;1.90;;;;;;;12.70;100.00;99257.28;5017221;28;20419;-72
2022/05/27 04:25:55;;;;;;;3.85;1.85;;;;;;;12.74;100.00;99252.28;5010973;28;20476;-72
2022/05/27 04:28:21;;;;;;;2.33;1.73;;;;;;;12.73;100.00;99240.56;5008818;28;20060;-72
2022/05/27 04:30:46;;;;;;;5.50;1.90;;;;;;;12.84;100.00;99255.44;5012548;28;20313;-72
2022/05/27 04:33:12;;;;;;;3.53;2.10;;;;;;;12.82;100.00;99252.91;5013728;28;20025;-71
2022/05/27 04:35:38;;;;;;;6.03;1.65;;;;;;;12.84;100.00;99259.00;5007201;28;20400;-71
2022/05/27 04:38:04;;;;;;;7.65;2.05;;;;;;;12.87;100.00;99261.28;5010452;28;20044;-71
2022/05/27 04:40:30;;;;;;;3.83;1.77;;;;;;;12.90;100.00;99251.88;5007898;28;20030;-70
2022/05/27 04:42:55;;;;;;;3.58;1.70;;;;;;;12.99;100.00;99260.66;5004897;28;20950;-71
2022/05/27 04:45:21;;;;;;;4.20;1.75;;;;;;;13.04;100.00;99272.56;5011083;28;20030;-71
2022/05/27 04:47:47;;;;;;;5.72;2.10;;;;;;;13.14;100.00;99274.88;5012280;28;20100;-72
2022/05/27 04:50:12;;;;;;;4.10;1.77;;;;;;;13.21;100.00;99267.56;5008219;28;20044;-71
2022/05/27 04:52:39;;;;;;;4.82;1.92;;;;;;;13.36;100.00;99272.81;5010243;28;20021;-71
2022/05/27 04:55:08;;;;;;;5.95;1.88;;;;;;;13.37;100.00;99260.91;5011933;28;20029;-71
2022/05/27 04:57:37;;;;;;;4.50;1.90;;;;;;;13.59;100.00;99277.81;5011787;28;20480;-70
2022/05/27 05:00:16;;;;;;;3.30;1.55;;;;;;;13.71;100.00;99267.97;5012966;28;20271;-76
2022/05/27 05:02:42;;;;;;;6.15;1.83;;;;;;;13.75;100.00;99266.50;5004345;28;20112;-76
2022/05/27 05:05:09;;;;;;;2.70;1.55;;;;;;;13.94;100.00;99275.66;5005469;28;20037;-76
2022/05/27 05:07:37;;;;;;;4.85;1.58;;;;;;;14.07;100.00;99279.38;5010246;28;20480;-75
2022/05/27 05:10:03;;;;;;;5.10;1.95;;;;;;;14.07;100.00;99272.06;5013074;28;20525;-75
2022/05/27 05:12:28;;;;;;;5.90;2.47;;;;;;;13.99;100.00;99245.06;5011611;28;20056;-74
2022/05/27 05:14:54;;;;;;;5.32;1.70;;;;;;;14.07;100.00;99260.31;5009332;28;20116;-75
2022/05/27 05:17:20;;;;;;;3.92;2.08;;;;;;;14.15;100.00;99282.72;5011413;28;20060;-75
2022/05/27 05:19:46;;;;;;;6.43;2.25;;;;;;;14.06;100.00;99272.28;5008602;28;20025;-75
2022/05/27 05:22:13;;;;;;;4.95;2.53;;;;;;;14.12;100.00;99291.31;5012059;28;20383;-75
2022/05/27 05:24:38;;;;;;;5.22;2.17;;;;;;;14.14;100.00;99291.06;5009519;28;20053;-74
2022/05/27 05:27:04;;;;;;;8.30;2.45;;;;;;;14.16;100.00;99288.97;5011200;28;20112;-76
2022/05/27 05:29:29;;;;;;;4.35;2.50;;;;;;;14.09;100.00;99277.28;5006375;28;20101;-76
2022/05/27 05:31:54;;;;;;;7.22;2.90;;;;;;;14.10;100.00;99268.91;5005943;28;20036;-76
2022/05/27 05:34:20;;;;;;;6.55;2.50;;;;;;;13.90;100.00;99268.97;5011787;28;20037;-76
2022/05/27 05:36:46;;;;;;;5.18;2.30;;;;;;;13.94;100.00;99272.13;5012157;28;20048;-76
2022/05/27 05:39:12;;;;;;;6.45;2.47;;;;;;;14.12;100.00;99299.47;5012468;28;20503;-75
2022/05/27 05:41:40;;;;;;;4.65;2.40;;;;;;;14.00;100.00;99288.41;5011096;28;20109;-75
2022/05/27 05:44:09;;;;;;;8.02;2.60;;;;;;;13.78;100.00;99265.22;5013238;28;20040;-77
2022/05/27 05:46:36;;;;;;;5.32;2.67;;;;;;;13.90;100.00;99285.28;5010497;28;20481;-68
2022/05/27 05:49:03;;;;;;;4.68;2.50;;;;;;;13.93;100.00;99259.53;5007223;28;20034;-71
2022/05/27 05:51:28;;;;;;;5.85;2.75;;;;;;;14.21;100.00;99284.56;5001929;28;20404;-71
2022/05/27 05:53:54;;;;;;;6.00;2.42;;;;;;;14.19;100.00;99292.09;5008327;28;20025;-71
2022/05/27 05:56:21;;;;;;;8.60;2.53;;;;;;;14.02;100.00;99278.16;5007382;28;20484;-73
2022/05/27 05:58:48;;;;;;;5.55;2.90;;;;;;;14.03;100.00;99289.84;5009828;28;20035;-72
2022/05/27 06:01:14;;;;;;;6.63;2.80;;;;;;;14.22;100.00;99305.28;4998934;28;20104;-74
2022/05/27 06:03:39;;;;;;;4.35;2.38;;;;;;;14.29;100.00;99288.09;5002911;28;20160;-74
2022/05/27 06:06:04;;;;;;;3.70;2.35;;;;;;;14.30;100.00;99273.44;5005407;28;20041;-74
2022/05/27 06:08:31;;;;;;;5.13;2.70;;;;;;;14.24;100.00;99292.28;5008934;28;20030;-74
2022/05/27 06:10:56;;;;;;;10.00;2.42;;;;;;;14.35;100.00;99290.78;5006708;28;20037;-74
2022/05/27 06:13:21;;;;;;;6.00;2.72;;;;;;;14.46;100.00;99292.84;5008871;28;20013;-74
2022/05/27 06:15:47;;;;;;;4.75;2.05;;;;;;;14.42;100.00;99277.16;5010422;28;20076;-74
2022/05/27 06:18:15;;;;;;;12.57;2.55;;;;;;;14.41;100.00;99280.94;5005633;28;20034;-74
2022/05/27 06:20:40;;;;;;;4.00;2.60;;;;;;;14.36;100.00;99303.34;4999078;28;20034;-74
2022/05/27 06:23:07;;;;;;;4.20;2.83;;;;;;;14.19;100.00;99283.09;5000954;28;20037;-73
2022/05/27 06:25:33;;;;;;;4.50;2.28;;;;;;;14.40;100.00;99292.88;5009621;28;20033;-75
2022/05/27 06:36:12;;;;;;;3.03;2.35;;;;;;;14.49;100.00;99294.31;5002916;28;20096;-76
2022/05/27 06:38:38;;;;;;;6.00;2.10;;;;;;;14.30;100.00;99287.88;5011485;28;20026;-75
2022/05/27 06:41:04;;;;;;;5.22;2.35;;;;;;;14.37;100.00;99307.75;5012766;28;20057;-78
2022/05/27 06:43:31;;;;;;;5.85;2.10;;;;;;;14.48;100.00;99304.34;5011632;28;20022;-76
2022/05/27 06:45:56;;;;;;;5.85;2.33;;;;;;;14.43;100.00;99300.59;5013470;28;20037;-80
2022/05/27 06:48:21;;;;;;;4.10;2.40;;;;;;;14.40;100.00;99311.91;5014343;28;20026;-73
2022/05/27 06:50:46;;;;;;;7.82;2.22;;;;;;;14.41;100.00;99302.72;5010419;28;20157;-70
2022/05/27 06:53:12;;;;;;;3.08;2.03;;;;;;;14.22;100.00;99288.13;5015807;28;20029;-72
2022/05/27 06:55:37;;;;;;;5.82;2.20;;;;;;;14.19;100.00;99294.81;5010365;28;20029;-73
2022/05/27 06:58:03;;;;;;;3.35;2.20;;;;;;;14.41;100.00;99309.00;5014449;28;20031;-73
2022/05/27 07:00:28;;;;;;;4.50;2.38;;;;;;;14.19;100.00;99286.66;5012470;28;20487;-77
2022/05/27 07:02:53;;;;;;;4.07;1.95;;;;;;;14.21;100.00;99286.47;5015150;28;20054;-74
2022/05/27 07:05:19;;;;;;;7.13;1.95;;;;;;;14.13;100.00;99268.47;5010022;28;20030;-73
2022/05/27 07:07:44;;;;;;;3.80;2.05;;;;;;;14.36;100.00;99310.69;5012542;28;20030;-76
2022/05/27 07:10:09;;;;;;;4.72;2.13;;;;;;;14.30;100.00;99289.75;5010709;28;20037;-77
2022/05/27 07:12:36;;;;;;;3.25;2.15;;;;;;;14.35;100.00;99282.63;5016093;28;20391;-74
2022/05/27 07:15:01;;;;;;;6.45;2.08;;;;;;;14.32;100.00;99304.00;5009699;28;20034;-66
2022/05/27 07:17:26;;;;;;;5.60;2.05;;;;;;;14.63;100.00;99317.72;5014126;28;20025;-69
2022/05/27 07:19:52;;;;;;;4.97;2.28;;;;;;;14.75;100.00;99319.75;5014196;28;20112;-70
2022/05/27 07:22:17;;;;;;;2.78;1.80;;;;;;;14.80;100.00;99306.31;5013962;28;20027;-77
2022/05/27 07:24:43;;;;;;;7.00;2.10;;;;;;;15.21;100.00;99305.00;5024150;28;20029;-73
2022/05/27 07:27:08;;;;;;;4.97;2.05;;;;;;;15.06;100.00;99297.13;5009952;28;20037;-74
2022/05/27 07:29:35;;;;;;;5.60;2.10;;;;;;;15.20;100.00;99308.78;5012637;28;20030;-74
2022/05/27 07:32:01;;;;;;;5.88;2.00;;;;;;;15.47;100.00;99306.69;5014976;28;20049;-75
2022/05/27 07:34:27;;;;;;;8.98;2.08;;;;;;;15.52;100.00;99280.41;5013095;28;20073;-75
2022/05/27 07:36:53;;;;;;;7.32;1.92;;;;;;;15.87;100.00;99298.97;5011149;28;20064;-72
2022/05/27 07:39:18;;;;;;;7.57;2.58;;;;;;;15.86;100.00;99289.13;5015009;28;20434;-71
2022/05/27 07:41:43;;;;;;;5.25;2.17;;;;;;;15.61;100.00;99280.94;5014942;28;20080;-72
2022/05/27 07:44:09;;;;;;;4.53;2.22;;;;;;;15.77;100.00;99290.47;5012226;28;20022;-71
2022/05/27 07:46:36;;;;;;;5.85;2.13;;;;;;;15.32;100.00;99298.81;5013767;28;20029;-71
2022/05/27 07:49:04;;;;;;;2.53;1.83;;;;;;;15.54;100.00;99302.00;5010698;28;20041;-71
2022/05/27 07:51:29;;;;;;;3.80;2.22;;;;;;;15.43;100.00;99309.03;5014229;28;20116;-71
2022/05/27 07:53:54;;;;;;;8.40;2.45;;;;;;;15.42;100.00;99276.50;5011916;28;20097;-73
2022/05/27 07:56:20;;;;;;;7.80;2.17;;;;;;;15.66;100.00;99288.47;5005198;28;20029;-72
2022/05/27 07:58:45;;;;;;;3.70;2.03;;;;;;;15.84;100.00;99293.97;5013053;28;20419;-71
2022/05/27 08:01:10;;;;;;;4.35;2.00;;;;;;;15.77;100.00;99298.66;5010429;28;20038;-71
2022/05/27 08:03:36;;;;;;;3.53;1.92;;;;;;;15.79;100.00;99302.00;5008033;28;20026;-70
2022/05/27 08:06:01;;;;;;;4.03;2.13;;;;;;;15.81;100.00;99302.63;5010735;28;20022;-71
2022/05/27 08:08:29;;;;;;;3.97;2.05;;;;;;;15.64;100.00;99304.19;5007724;28;20499;-78
2022/05/27 08:10:55;;;;;;;4.80;2.00;;;;;;;15.58;100.00;99289.56;5011775;28;20026;-76
2022/05/27 08:13:21;;;;;;;4.30;2.10;;;;;;;15.38;100.00;99297.94;5010016;28;20033;-70
2022/05/27 08:15:46;;;;;;;3.97;2.00;;;;;;;15.46;100.00;99305.84;5010693;28;20038;-70
2022/05/27 08:18:12;;;;;;;5.63;1.95;;;;;;;15.64;100.00;99296.03;5010505;28;20049;-77
2022/05/27 08:20:39;;;;;;;2.83;1.90;;;;;;;15.83;100.00;99316.88;5014016;28;20180;-70
2022/05/27 08:23:05;;;;;;;5.15;1.60;;;;;;;16.11;100.00;99313.66;5011355;28;20029;-70
2022/05/27 08:25:31;;;;;;;5.45;1.90;;;;;;;16.07;100.00;99297.94;5002347;28;20113;-70
2022/05/27 08:27:57;;;;;;;4.57;2.10;;;;;;;16.31;100.00;99316.13;5013551;28;20117;-70
2022/05/27 08:30:29;;;;;;;5.13;2.00;;;;;;;16.17;100.00;99311.91;5014272;28;20025;-77
2022/05/27 08:32:56;;;;;;;2.75;1.67;;;;;;;16.20;100.00;99295.88;5014150;28;20097;-77
2022/05/27 08:38:10;;;;;;;4.13;2.20;;;;;;;16.52;100.00;99314.00;5006462;28;20053;-78
2022/05/27 08:40:54;;;;;;;4.10;1.80;;;;;;;16.62;100.00;99315.13;5015380;28;20435;-75
2022/05/27 08:43:50;;;;;;;4.45;2.40;;;;;;;16.26;100.00;99321.44;5012137;28;20049;-76
2022/05/27 08:46:47;;;;;;;4.32;2.53;;;;;;;16.32;100.00;99316.97;5003347;28;20079;-76
2022/05/27 08:49:19;;;;;;;5.22;2.47;;;;;;;15.99;100.00;99312.72;5002088;28;20029;-76
2022/05/27 08:52:06;;;;;;;4.75;2.10;;;;;;;16.38;100.00;99324.25;5007832;28;20026;-75
2022/05/27 08:54:44;;;;;;;4.32;2.25;;;;;;;16.13;100.00;99302.47;5007999;28;20056;-75
2022/05/27 09:00:07;;;;;;;4.03;2.42;;;;;;;15.69;100.00;99327.09;5009116;28;20056;-75
2022/05/27 09:02:53;;;;;;;4.20;2.47;;;;;;;15.78;100.00;99292.16;5023609;28;20026;-80
2022/05/27 09:05:30;;;;;;;8.00;2.30;;;;;;;15.69;100.00;99324.34;5020742;28;20029;-78
2022/05/27 09:08:12;;;;;;;5.05;2.15;;;;;;;15.91;100.00;99316.56;5011470;28;22347;-76
2022/05/27 09:10:45;;;;;;;5.40;2.35;;;;;;;15.62;100.00;99319.97;5011626;28;20068;-75
2022/05/27 09:13:46;;;;;;;2.85;2.22;;;;;;;15.70;100.00;99330.63;5004551;28;20049;-74
2022/05/27 09:16:33;;;;;;;5.72;2.00;;;;;;;15.68;100.00;99309.00;4971051;28;20505;-75
2022/05/27 09:19:29;;;;;;;4.03;2.20;;;;;;;16.24;100.00;99317.28;5009614;28;20048;-74
2022/05/27 09:22:18;;;;;;;5.57;1.90;;;;;;;16.17;100.00;99314.63;5004947;28;20439;-75
2022/05/27 09:25:08;;;;;;;6.45;2.30;;;;;;;16.75;100.00;99321.47;5019277;28;20026;-70
2022/05/27 09:27:47;;;;;;;3.35;2.03;;;;;;;16.31;100.00;99299.75;5009370;28;20403;-71
2022/05/27 09:30:15;;;;;;;5.07;1.75;;;;;;;16.99;100.00;99314.22;5011908;28;20431;-71
2022/05/27 09:32:51;;;;;;;3.33;1.88;;;;;;;17.33;100.00;99303.63;5008094;28;20080;-71
2022/05/27 09:35:32;;;;;;;3.67;2.03;;;;;;;16.98;100.00;99318.03;4993328;28;20053;-71
2022/05/27 09:38:01;;;;;;;8.60;2.53;;;;;;;16.82;100.00;99314.03;5006971;28;20030;-71
2022/05/27 09:40:48;;;;;;;3.40;1.80;;;;;;;16.58;100.00;99292.06;5010909;28;20045;-71
2022/05/27 09:43:15;;;;;;;2.42;1.70;;;;;;;16.64;100.00;99298.50;5008632;28;20476;-71
2022/05/27 09:45:43;;;;;;;4.85;1.95;;;;;;;16.27;100.00;99289.50;4998690;28;20136;-72
2022/05/27 09:48:10;;;;;;;2.97;1.70;;;;;;;15.96;100.00;99300.38;5008301;28;20025;-71
2022/05/27 09:50:45;;;;;;;5.30;2.10;;;;;;;16.28;100.00;99297.47;5009612;28;20029;-71
2022/05/27 09:53:20;;;;;;;5.80;1.92;;;;;;;16.45;100.00;99286.75;5008888;28;20056;-71
2022/05/27 09:55:53;;;;;;;3.58;1.92;;;;;;;16.50;100.00;99286.06;5001285;28;20037;-71
2022/05/27 09:58:28;;;;;;;3.47;1.92;;;;;;;16.64;100.00;99285.69;5007956;28;20079;-71
2022/05/27 10:00:54;;;;;;;1.98;1.55;;;;;;;17.26;100.00;99281.84;5007892;28;20030;-72
2022/05/27 10:03:45;;;;;;;7.25;1.75;;;;;;;16.81;100.00;99291.34;5004947;28;20022;-72
2022/05/27 10:06:19;;;;;;;6.57;1.50;;;;;;;17.40;100.00;99288.78;5003617;28;20026;-72
2022/05/27 10:08:56;;;;;;;5.30;1.73;;;;;;;17.64;100.00;99288.78;5003159;28;20038;-72
2022/05/27 10:11:27;;;;;;;4.35;1.60;;;;;;;18.11;93.36;99251.28;5011138;28;20530;-71
2022/05/27 10:14:33;;;;;;;2.92;1.48;;;;;;;18.68;89.90;99283.41;5004523;28;20038;-72
2022/05/27 10:17:10;;;;;;;2.90;1.40;;;;;;;20.15;76.66;99261.41;5001134;28;20034;-71
2022/05/27 10:19:43;;;;;;;5.35;1.60;;;;;;;21.20;70.53;99267.53;5000881;28;20022;-72
2022/05/27 10:22:27;;;;;;;1.92;1.17;;;;;;;20.01;74.85;99252.69;5006548;28;20038;-72
2022/05/27 10:25:03;;;;;;;7.05;1.70;;;;;;;20.04;74.48;99254.94;5005689;28;20065;-72
2022/05/27 10:27:35;;;;;;;2.35;1.25;;;;;;;19.18;79.07;99246.22;5005732;28;20025;-72
2022/05/27 10:30:07;;;;;;;3.92;1.25;;;;;;;18.54;85.66;99254.59;5007670;28;20107;-72
2022/05/27 10:32:35;;;;;;;2.65;1.10;;;;;;;18.44;85.72;99259.88;5004204;28;20443;-72
2022/05/27 10:35:04;;;;;;;4.70;1.20;;;;;;;18.27;87.05;99254.34;5002483;28;20033;-72
2022/05/27 10:37:40;;;;;;;1.52;0.95;;;;;;;19.00;83.82;99250.84;5004467;28;20053;-72
2022/05/27 10:40:22;;;;;;;1.63;1.25;;;;;;;18.96;83.07;99241.44;4997721;28;22164;-72
2022/05/27 10:42:53;;;;;;;2.53;1.08;;;;;;;18.51;85.41;99252.34;5006260;28;20387;-72
2022/05/27 10:45:27;;;;;;;3.22;1.52;;;;;;;18.20;86.44;99239.94;4999295;28;20034;-72
2022/05/27 10:48:03;;;;;;;4.25;1.73;;;;;;;18.34;85.09;99233.97;5003171;28;20029;-72
2022/05/27 10:50:45;;;;;;;1.83;1.05;;;;;;;18.77;85.28;99220.81;4999881;28;20036;-74
2022/05/27 10:53:21;;;;;;;2.63;1.30;;;;;;;18.70;87.38;99237.38;4999326;28;20055;-71
2022/05/27 10:55:59;;;;;;;4.15;1.20;;;;;;;18.83;82.51;99236.25;5002691;28;20613;-72
2022/05/27 11:02:16;;;;;;;2.08;1.25;;;;;;;19.05;86.44;99226.25;5003452;28;20056;-72
2022/05/27 11:04:54;;;;;;;2.50;1.55;;;;;;;19.17;81.38;99228.91;4998501;28;20046;-71
2022/05/27 11:07:47;;;;;;;3.35;1.60;;;;;;;19.65;81.57;99223.88;5003127;28;20389;-72
2022/05/27 11:10:31;;;;;;;3.10;1.50;;;;;;;19.71;77.33;99203.69;5003198;28;20448;-72
2022/05/27 11:16:01;;;;;;;6.13;1.13;;;;;;;19.99;78.13;99213.69;5000818;28;20044;-71
2022/05/27 11:18:45;;;;;;;2.10;1.27;;;;;;;19.64;76.92;99203.00;5006257;28;20036;-72
2022/05/27 11:21:26;;;;;;;2.67;1.15;;;;;;;20.19;72.75;99201.28;5005881;28;20491;-72
2022/05/27 11:24:08;;;;;;;2.88;1.38;;;;;;;19.56;76.21;99176.81;5005238;28;20033;-72
2022/05/27 11:27:12;;;;;;;3.38;1.55;;;;;;;19.50;78.73;99205.28;5005513;28;20029;-71
2022/05/27 11:29:58;;;;;;;4.05;1.48;;;;;;;20.30;74.58;99201.16;5003009;28;20116;-73
2022/05/27 11:32:58;;;;;;;1.90;1.10;;;;;;;20.09;74.75;99193.72;5009429;28;20026;-71
2022/05/27 11:35:35;;;;;;;2.58;1.10;;;;;;;20.95;68.94;99191.09;5005586;28;20656;-71
2022/05/27 11:38:05;;;;;;;1.42;0.93;;;;;;;21.12;65.25;99193.72;5009625;28;20059;-71
2022/05/27 11:40:54;;;;;;;2.47;0.95;;;;;;;20.11;72.32;99184.16;5010472;28;20057;-72
2022/05/27 11:43:28;;;;;;;1.98;1.10;;;;;;;20.16;72.67;99193.56;5007159;28;20021;-71
2022/05/27 11:46:22;;;;;;;4.38;1.05;;;;;;;20.44;69.38;99179.59;5005676;28;20499;-71
2022/05/27 11:48:54;;;;;;;1.23;0.80;;;;;;;20.75;67.08;99185.41;5005244;28;20060;-71
2022/05/27 11:51:31;;;;;;;2.15;0.90;;;;;;;21.82;61.97;99182.63;5009934;28;20396;-72
2022/05/27 11:54:37;;;;;;;2.75;0.95;;;;;;;21.88;60.46;99179.63;5011054;28;20030;-71
2022/05/27 11:57:39;;;;;;;4.18;0.80;;;;;;;21.11;63.21;99189.28;5005404;28;20054;-71
2022/05/27 12:00:10;;;;;;;2.47;0.80;;;;;;;20.75;66.40;99183.50;5009535;28;20040;-72
2022/05/27 12:02:58;;;;;;;1.85;0.73;;;;;;;19.54;73.49;99180.88;5012276;28;20392;-72
2022/05/27 12:05:29;;;;;;;2.60;1.00;;;;;;;20.30;73.91;99179.16;5006027;28;20100;-72
2022/05/27 12:08:24;;;;;;;4.65;1.50;;;;;;;20.35;69.76;99178.38;5009489;28;20029;-71
2022/05/27 12:11:16;;;;;;;1.40;0.77;;;;;;;20.81;66.70;99170.63;5008113;28;20084;-72
2022/05/27 12:14:02;;;;;;;2.50;0.98;;;;;;;21.11;63.59;99174.72;5007832;28;20728;-71
2022/05/27 12:16:31;;;;;;;2.45;1.05;;;;;;;21.04;63.58;99169.44;5005315;28;20030;-72
2022/05/27 12:19:04;;;;;;;1.80;0.98;;;;;;;21.27;63.10;99159.97;5006111;28;20072;-72